logo
Search for airport 
image banner adimage banner adimage banner ad
image banner ad

SGYBPO - Yby Pora

Located in Cerro 21, Paraguay

ICAO - , IATA -

Data provided by Airmate  

General information

Coordinates: S23°4'28" W55°40'29"
Elevation is 1192 feet MSL.
Magnetic variation is -17° East
View others Airports in Amambay Department

Operational data

Special qualification required
Current time UTC:
Current local time:
Weather at : SBPP - Ponta Pora ( 58 km )
METAR: SBPP 141700Z 22010KT 9999 OVC005 09/07 Q1024
TAF: TAF SBPP 141600Z 1418/1518 20008KT 5000 BR OVC008 TN06/1510Z TX15/1518Z BECMG 1501/1503 16005KT PROB30 1506/1511 2000 BR BKN005 BECMG 1511/1513 9999 NSW BKN020 RMK PGE
View NOTAMs / SUP AIP / TFR affecting this airport [VIEW]
Communications frequencies: [VIEW]

Runways:

RWY identifierQFULength (ft)Width (ft)SurfaceLDA (ft)
0865°370751DIRT
26245°370751DIRT

Airport contact information

Address: Cerro 21 Paraguay

Satellite view of SGYBPO